createdAt,value
2022-10-20T00:01:27.065Z,14.88
2022-10-20T00:03:55.262Z,23.17
2022-10-20T00:06:26.510Z,12.30
2022-10-20T00:11:22.713Z,17.17
2022-10-20T00:13:51.979Z,13.63
2022-10-20T00:16:19.989Z,11.35
2022-10-20T00:18:47.494Z,10.10
2022-10-20T00:21:18.427Z,13.88
2022-10-20T00:23:45.534Z,17.88
2022-10-20T00:26:21.063Z,12.82
2022-10-20T00:28:48.716Z,13.93
2022-10-20T00:31:16.726Z,14.48
2022-10-20T00:33:44.224Z,15.25
2022-10-20T00:36:14.984Z,13.77
2022-10-20T00:38:42.641Z,17.05
2022-10-20T00:41:13.779Z,15.70
2022-10-20T00:43:52.711Z,15.90
2022-10-20T00:46:25.694Z,18.80
2022-10-20T00:49:00.944Z,22.73
2022-10-20T00:51:30.119Z,12.90
2022-10-20T00:54:05.819Z,16.17
2022-10-20T00:56:33.780Z,15.75
2022-10-20T00:59:02.951Z,17.15
2022-10-20T01:01:30.229Z,17.02
2022-10-20T01:03:57.897Z,13.35
2022-10-20T01:06:25.089Z,12.35
2022-10-20T01:08:54.324Z,16.02
2022-10-20T01:12:01.646Z,20.30
2022-10-20T01:14:43.564Z,13.00
2022-10-20T01:17:35.977Z,19.02
2022-10-20T01:20:18.642Z,13.90
2022-10-20T01:22:48.623Z,13.88
2022-10-20T01:25:53.969Z,15.30
2022-10-20T01:28:37.968Z,19.17
2022-10-20T01:31:47.151Z,13.95
2022-10-20T01:34:32.721Z,15.65
2022-10-20T01:37:07.973Z,23.25
2022-10-20T01:40:00.627Z,13.38
2022-10-20T01:42:29.774Z,14.20
2022-10-20T01:45:01.187Z,16.20
2022-10-20T01:49:57.970Z,20.17
2022-10-20T01:52:27.636Z,25.30
2022-10-20T01:54:54.427Z,23.52
2022-10-20T01:57:38.643Z,16.90
2022-10-20T02:00:15.120Z,16.27
2022-10-20T02:03:04.663Z,14.65
2022-10-20T02:06:07.581Z,13.32
2022-10-20T02:08:48.574Z,18.48
2022-10-20T02:11:38.337Z,14.93
2022-10-20T02:14:07.905Z,17.05
2022-10-20T02:16:40.680Z,12.55
2022-10-20T02:19:10.799Z,12.90
2022-10-20T02:21:38.431Z,15.68
2022-10-20T02:24:08.998Z,17.17
2022-10-20T02:26:39.581Z,13.27
2022-10-20T02:29:19.055Z,16.83
2022-10-20T02:31:47.324Z,18.75
2022-10-20T02:34:15.191Z,19.38
2022-10-20T02:36:43.514Z,14.85
2022-10-20T02:39:11.295Z,10.73
2022-10-20T02:41:38.525Z,15.13
2022-10-20T02:44:05.568Z,12.43
2022-10-20T02:46:32.707Z,14.90
2022-10-20T02:48:59.614Z,12.15
2022-10-20T02:51:26.657Z,10.95
2022-10-20T02:53:54.959Z,10.25
2022-10-20T02:56:24.428Z,14.57
2022-10-20T02:58:53.518Z,15.32
2022-10-20T03:01:20.414Z,14.45
2022-10-20T03:03:47.384Z,15.40
2022-10-20T03:06:16.163Z,13.48
2022-10-20T03:08:43.964Z,12.95
2022-10-20T03:11:11.161Z,13.38
2022-10-20T03:13:38.164Z,10.25
2022-10-20T03:16:05.286Z,14.30
2022-10-20T03:18:32.450Z,12.45
2022-10-20T03:20:59.390Z,12.13
2022-10-20T03:23:26.212Z,18.20
2022-10-20T03:25:53.239Z,13.57
2022-10-20T03:28:20.069Z,10.13
2022-10-20T03:30:47.287Z,24.63
2022-10-20T03:33:14.200Z,22.45
2022-10-20T03:35:43.021Z,26.08
2022-10-20T03:38:10.204Z,27.38
2022-10-20T03:40:37.068Z,27.30
2022-10-20T03:43:04.085Z,32.40
2022-10-20T03:45:30.993Z,22.75
2022-10-20T03:47:57.883Z,20.10
2022-10-20T03:50:24.908Z,13.65
2022-10-20T03:52:52.073Z,15.60
2022-10-20T03:55:19.999Z,21.65
2022-10-20T03:57:46.998Z,17.92
2022-10-20T04:00:14.040Z,16.35
2022-10-20T04:02:43.859Z,19.20
2022-10-20T04:05:17.769Z,20.40
2022-10-20T04:07:45.094Z,33.15
2022-10-20T04:10:12.924Z,20.17
2022-10-20T04:12:40.035Z,22.85
2022-10-20T04:15:08.100Z,16.38
2022-10-20T04:17:36.952Z,17.90
2022-10-20T04:20:05.563Z,20.05
2022-10-20T04:22:32.567Z,18.85
2022-10-20T04:24:59.603Z,21.42
2022-10-20T04:27:26.462Z,20.98
2022-10-20T04:29:53.443Z,27.55
2022-10-20T04:32:20.526Z,28.65
2022-10-20T04:34:47.588Z,28.23
2022-10-20T04:37:14.915Z,19.00
2022-10-20T04:39:41.974Z,26.15
2022-10-20T04:42:13.044Z,28.33
2022-10-20T04:44:40.168Z,29.02
2022-10-20T04:47:07.220Z,27.58
2022-10-20T04:49:34.306Z,24.48
2022-10-20T04:52:01.447Z,31.98
2022-10-20T04:54:28.712Z,34.22
2022-10-20T04:56:56.712Z,32.17
2022-10-20T04:59:33.679Z,24.00
2022-10-20T05:02:01.198Z,32.17
2022-10-20T05:04:28.357Z,29.20
2022-10-20T05:06:55.290Z,17.73
2022-10-20T05:09:22.398Z,26.27
2022-10-20T05:11:49.357Z,22.17
2022-10-20T05:14:16.208Z,21.85
2022-10-20T05:16:43.266Z,26.23
2022-10-20T05:19:11.030Z,19.90
2022-10-20T05:21:39.137Z,30.13
2022-10-20T05:24:06.700Z,20.42
2022-10-20T05:26:37.387Z,23.40
2022-10-20T05:29:06.347Z,26.05
2022-10-20T05:31:37.824Z,20.25
2022-10-20T05:34:04.842Z,26.75
2022-10-20T05:36:31.867Z,26.48
2022-10-20T05:38:58.783Z,26.27
2022-10-20T05:41:28.522Z,29.70
2022-10-20T05:44:01.110Z,26.63
2022-10-20T05:46:31.823Z,27.75
2022-10-20T05:49:01.127Z,24.50
2022-10-20T05:51:31.148Z,30.65
2022-10-20T05:53:59.378Z,39.13
2022-10-20T05:56:27.511Z,40.15
2022-10-20T05:58:54.947Z,50.00
2022-10-20T06:01:39.925Z,50.10
2022-10-20T06:04:10.876Z,48.13
2022-10-20T06:06:37.925Z,37.45
2022-10-20T06:09:07.286Z,53.03
2022-10-20T06:11:39.286Z,51.42
2022-10-20T06:14:08.434Z,55.95
2022-10-20T06:16:35.493Z,47.92
2022-10-20T06:19:03.568Z,42.72
2022-10-20T06:21:32.889Z,32.58
2022-10-20T06:24:05.377Z,42.22
2022-10-20T06:26:34.937Z,37.47
2022-10-20T06:29:04.597Z,52.67
2022-10-20T06:31:33.548Z,42.42
2022-10-20T06:34:01.529Z,45.65
2022-10-20T06:36:29.014Z,54.85
2022-10-20T06:38:58.487Z,50.13
2022-10-20T06:41:26.975Z,39.80
2022-10-20T06:43:58.925Z,48.25
2022-10-20T06:46:34.869Z,69.25
2022-10-20T06:49:03.967Z,53.63
2022-10-20T06:51:31.310Z,58.10
2022-10-20T06:54:00.487Z,34.53
2022-10-20T06:56:29.697Z,55.58
2022-10-20T06:58:57.937Z,38.30
2022-10-20T07:01:30.930Z,46.38
2022-10-20T07:04:01.818Z,33.67
2022-10-20T07:06:40.343Z,43.47
2022-10-20T07:09:12.029Z,29.88
2022-10-20T07:11:42.269Z,41.95
2022-10-20T07:14:13.785Z,30.98
2022-10-20T07:16:44.528Z,37.70
2022-10-20T07:19:11.798Z,46.75
2022-10-20T07:21:42.955Z,45.30
2022-10-20T07:24:12.422Z,30.55
2022-10-20T07:26:42.070Z,23.65
2022-10-20T07:29:11.094Z,26.80
2022-10-20T07:31:44.252Z,28.77
2022-10-20T07:34:24.465Z,33.85
2022-10-20T07:36:53.538Z,37.70
2022-10-20T07:39:21.587Z,47.13
2022-10-20T07:41:49.010Z,31.13
2022-10-20T07:44:18.525Z,33.88
2022-10-20T07:46:46.061Z,30.23
2022-10-20T07:52:01.698Z,34.05
2022-10-20T07:54:29.312Z,61.50
2022-10-20T07:56:56.437Z,32.13
2022-10-20T07:59:24.663Z,72.72
2022-10-20T08:01:54.722Z,214.23
2022-10-20T08:04:23.681Z,102.43
2022-10-20T08:06:50.855Z,36.55
2022-10-20T08:09:18.339Z,27.90
2022-10-20T08:11:51.456Z,22.13
2022-10-20T08:14:22.161Z,29.70
2022-10-20T08:16:56.340Z,19.17
2022-10-20T08:19:30.770Z,23.35
2022-10-20T08:21:58.274Z,16.75
2022-10-20T08:24:25.654Z,16.55
2022-10-20T08:26:52.919Z,20.13
2022-10-20T08:29:19.895Z,19.98
2022-10-20T08:31:47.212Z,26.10
2022-10-20T08:34:14.610Z,17.45
2022-10-20T08:36:41.740Z,9.90
2022-10-20T08:39:09.726Z,8.30
2022-10-20T08:42:02.498Z,9.23
2022-10-20T08:44:34.771Z,9.98
2022-10-20T08:47:07.663Z,3.63
2022-10-20T08:49:35.937Z,4.20
2022-10-20T08:54:44.708Z,9.07
2022-10-20T08:57:36.575Z,4.65
2022-10-20T09:00:25.945Z,7.70
2022-10-20T09:02:54.742Z,6.47
2022-10-20T09:05:26.872Z,11.55
2022-10-20T09:07:55.288Z,11.38
2022-10-20T09:10:30.501Z,16.40
2022-10-20T09:12:59.286Z,6.30
2022-10-20T09:15:27.307Z,7.22
2022-10-20T09:18:05.497Z,4.22
2022-10-20T09:20:46.054Z,6.88
2022-10-20T09:23:39.925Z,4.97
2022-10-20T09:26:37.548Z,2.90
2022-10-20T09:29:16.551Z,4.30
2022-10-20T09:31:52.274Z,7.53
2022-10-20T09:34:21.190Z,11.13
2022-10-20T09:36:50.131Z,5.22
2022-10-20T09:39:29.291Z,3.80
2022-10-20T09:42:06.174Z,6.55
2022-10-20T09:44:46.119Z,5.68
2022-10-20T09:47:16.372Z,6.82
2022-10-20T09:49:46.520Z,6.80
2022-10-20T09:52:21.332Z,5.90
2022-10-20T09:54:50.455Z,5.47
2022-10-20T09:57:21.044Z,4.50
2022-10-20T09:59:51.935Z,5.38
2022-10-20T10:02:19.320Z,3.97
2022-10-20T10:04:49.198Z,8.05
2022-10-20T10:07:22.741Z,9.40
2022-10-20T10:10:24.596Z,4.88
2022-10-20T10:17:51.194Z,6.43
2022-10-20T10:20:18.410Z,6.13
2022-10-20T10:22:45.540Z,7.15
2022-10-20T10:25:31.487Z,8.10
2022-10-20T10:28:07.242Z,8.30
2022-10-20T10:30:35.729Z,5.75
2022-10-20T10:33:17.042Z,3.40
2022-10-20T10:35:45.672Z,3.70
2022-10-20T10:38:14.750Z,6.63
2022-10-20T10:41:07.167Z,5.22
2022-10-20T10:43:53.202Z,6.03
2022-10-20T10:46:27.555Z,5.32
2022-10-20T10:49:31.763Z,6.22
2022-10-20T10:52:17.358Z,7.05
2022-10-20T10:55:14.297Z,4.05
2022-10-20T10:57:49.719Z,4.47
2022-10-20T11:00:25.932Z,6.35
2022-10-20T11:03:20.154Z,9.20
2022-10-20T11:05:54.534Z,4.43
2022-10-20T11:08:39.707Z,4.85
2022-10-20T11:11:10.395Z,7.18
2022-10-20T11:13:48.624Z,5.63
2022-10-20T11:16:40.879Z,11.25
2022-10-20T11:19:43.208Z,4.18
2022-10-20T11:22:38.022Z,4.93
2022-10-20T11:25:20.429Z,11.00
2022-10-20T11:27:53.253Z,7.15
2022-10-20T11:30:22.486Z,10.05
2022-10-20T11:32:58.775Z,8.07
2022-10-20T11:35:36.055Z,7.65
2022-10-20T11:38:13.125Z,8.32
2022-10-20T11:40:44.161Z,21.17
2022-10-20T11:43:22.110Z,11.17
2022-10-20T11:46:06.208Z,11.68
2022-10-20T11:48:48.475Z,7.93
2022-10-20T11:51:30.567Z,8.82
2022-10-20T11:54:03.709Z,10.23
2022-10-20T11:57:06.091Z,12.25
2022-10-20T11:59:50.190Z,6.82
2022-10-20T12:02:48.288Z,8.45
2022-10-20T12:05:53.245Z,6.30
2022-10-20T12:08:49.498Z,10.20
2022-10-20T12:11:36.523Z,9.10
2022-10-20T12:14:15.750Z,8.27
2022-10-20T12:16:51.882Z,10.48
2022-10-20T12:19:25.277Z,7.97
2022-10-20T12:21:57.084Z,6.25
2022-10-20T12:24:40.240Z,10.50
2022-10-20T12:27:10.279Z,9.25
2022-10-20T12:29:37.514Z,7.50
2022-10-20T12:32:25.733Z,7.72
2022-10-20T12:34:55.837Z,7.78
2022-10-20T12:37:26.380Z,7.07
2022-10-20T12:39:56.792Z,8.82
2022-10-20T12:42:30.537Z,6.50
2022-10-20T12:45:05.199Z,12.13
2022-10-20T12:47:37.601Z,6.00
2022-10-20T12:50:32.527Z,10.20
2022-10-20T12:53:18.900Z,6.50
2022-10-20T12:55:54.857Z,6.20
2022-10-20T12:58:22.827Z,13.52
2022-10-20T13:00:49.841Z,9.82
2022-10-20T13:03:32.206Z,8.88
2022-10-20T13:06:00.194Z,10.65
2022-10-20T13:08:35.411Z,4.68
2022-10-20T13:11:36.394Z,4.70
2022-10-20T13:14:12.659Z,6.63
2022-10-20T13:17:05.410Z,10.82
2022-10-20T13:19:49.263Z,7.20
2022-10-20T13:22:44.866Z,8.23
2022-10-20T13:25:56.474Z,6.95
2022-10-20T13:28:27.381Z,12.85
2022-10-20T13:31:28.675Z,6.68
2022-10-20T13:37:12.085Z,7.47
2022-10-20T13:40:11.560Z,8.30
2022-10-20T13:42:57.792Z,15.63
2022-10-20T13:45:30.146Z,4.30
2022-10-20T13:48:18.443Z,5.30
2022-10-20T13:50:57.374Z,11.98
2022-10-20T13:53:41.835Z,4.53
2022-10-20T13:56:18.033Z,5.88
2022-10-20T13:59:05.975Z,4.50
2022-10-20T14:01:36.080Z,52.97
2022-10-20T14:04:19.302Z,7.43
2022-10-20T14:06:47.455Z,5.68
2022-10-20T14:09:24.331Z,5.53
2022-10-20T14:11:58.661Z,23.30
2022-10-20T14:14:29.510Z,10.15
2022-10-20T14:16:59.603Z,9.48
2022-10-20T14:19:30.896Z,4.13
2022-10-20T14:22:10.100Z,11.13
2022-10-20T14:24:43.441Z,15.60
2022-10-20T14:27:20.419Z,8.75
2022-10-20T14:29:48.393Z,16.27
2022-10-20T14:32:28.482Z,8.68
2022-10-20T14:35:01.548Z,10.73
2022-10-20T14:37:34.868Z,16.95
2022-10-20T14:40:06.899Z,24.55
2022-10-20T14:42:34.968Z,11.20
2022-10-20T14:45:04.137Z,8.10
2022-10-20T14:47:42.489Z,9.50
2022-10-20T14:50:20.788Z,14.25
2022-10-20T14:52:54.029Z,6.95
2022-10-20T14:55:30.681Z,13.77
2022-10-20T14:57:58.488Z,10.57
2022-10-20T15:00:34.722Z,27.08
2022-10-20T15:03:07.214Z,19.25
2022-10-20T15:05:40.198Z,21.73
2022-10-20T15:08:18.341Z,22.33
2022-10-20T15:10:46.363Z,34.30
2022-10-20T15:13:27.718Z,44.85
2022-10-20T15:15:57.626Z,41.03
2022-10-20T15:18:25.065Z,48.05
2022-10-20T15:20:59.677Z,41.15
2022-10-20T15:23:31.011Z,29.42
2022-10-20T15:26:07.067Z,38.83
2022-10-20T15:28:39.261Z,33.47
2022-10-20T15:31:16.495Z,27.70
2022-10-20T15:33:51.545Z,22.88
2022-10-20T15:36:25.299Z,21.65
2022-10-20T15:38:52.810Z,23.90
2022-10-20T15:41:26.489Z,18.70
2022-10-20T15:43:53.700Z,23.45
2022-10-20T15:46:21.281Z,19.95
2022-10-20T15:48:48.851Z,17.02
2022-10-20T15:51:27.787Z,21.42
2022-10-20T15:53:55.559Z,30.40
2022-10-20T15:56:22.465Z,57.75
2022-10-20T15:58:52.649Z,43.13
2022-10-20T16:01:21.168Z,29.33
2022-10-20T16:03:48.848Z,26.88
2022-10-20T16:06:17.598Z,22.30
2022-10-20T16:08:46.782Z,25.63
2022-10-20T16:11:15.192Z,24.88
2022-10-20T16:13:42.623Z,18.23
2022-10-20T16:16:13.313Z,31.27
2022-10-20T16:18:40.540Z,20.63
2022-10-20T16:21:07.639Z,21.40
2022-10-20T16:23:40.599Z,26.98
2022-10-20T16:26:12.161Z,35.83
2022-10-20T16:28:39.283Z,25.85
2022-10-20T16:31:09.203Z,17.98
2022-10-20T16:33:36.889Z,17.45
2022-10-20T16:38:40.458Z,21.17
2022-10-20T16:41:11.134Z,55.17
2022-10-20T16:43:40.517Z,49.78
2022-10-20T16:46:08.931Z,31.58
2022-10-20T16:48:37.784Z,45.33
2022-10-20T16:51:07.431Z,63.63
2022-10-20T16:53:34.995Z,31.65
2022-10-20T16:56:02.743Z,44.28
2022-10-20T16:58:29.833Z,63.90
2022-10-20T17:01:01.402Z,64.82
2022-10-20T17:03:29.712Z,45.20
2022-10-20T17:05:59.404Z,28.35
2022-10-20T17:08:28.228Z,35.70
2022-10-20T17:11:00.111Z,41.60
2022-10-20T17:13:27.684Z,20.80
2022-10-20T17:15:54.603Z,31.80
2022-10-20T17:18:36.092Z,30.88
2022-10-20T17:23:36.207Z,29.42
2022-10-20T17:26:08.011Z,34.42
2022-10-20T17:28:37.397Z,31.17
2022-10-20T17:31:12.368Z,42.70
2022-10-20T17:33:40.125Z,49.72
2022-10-20T17:36:07.941Z,51.03
2022-10-20T17:38:36.017Z,48.80
2022-10-20T17:41:06.714Z,60.67
2022-10-20T17:43:33.875Z,53.22
2022-10-20T17:46:08.848Z,48.22
2022-10-20T17:48:56.978Z,50.72
2022-10-20T17:51:28.939Z,43.65
2022-10-20T17:53:58.934Z,37.95
2022-10-20T17:56:35.962Z,40.13
2022-10-20T17:59:04.796Z,43.72
2022-10-20T18:01:40.377Z,50.67
2022-10-20T18:04:10.129Z,69.80
2022-10-20T18:06:38.150Z,44.95
2022-10-20T18:09:11.038Z,58.60
2022-10-20T18:11:40.316Z,45.88
2022-10-20T18:14:07.340Z,44.78
2022-10-20T18:16:36.135Z,41.83
2022-10-20T18:19:04.496Z,44.20
2022-10-20T18:21:32.811Z,39.22
2022-10-20T18:24:03.841Z,37.13
2022-10-20T18:26:33.507Z,34.35
2022-10-20T18:29:02.035Z,32.10
2022-10-20T18:31:31.839Z,37.55
2022-10-20T18:34:04.462Z,32.70
2022-10-20T18:36:34.133Z,34.35
2022-10-20T18:39:01.520Z,25.85
2022-10-20T18:41:32.894Z,33.85
2022-10-20T18:44:01.886Z,33.70
2022-10-20T18:46:31.096Z,27.73
2022-10-20T18:48:59.203Z,18.65
2022-10-20T18:51:27.137Z,18.27
2022-10-20T18:53:57.348Z,21.15
2022-10-20T18:56:27.150Z,18.40
2022-10-20T18:58:56.337Z,16.10
2022-10-20T19:01:26.735Z,25.92
2022-10-20T19:03:59.691Z,41.17
2022-10-20T19:06:30.679Z,32.75
2022-10-20T19:09:00.862Z,19.02
2022-10-20T19:11:31.163Z,21.42
2022-10-20T19:13:58.985Z,12.85
2022-10-20T19:16:28.443Z,26.25
2022-10-20T19:18:57.444Z,17.85
2022-10-20T19:21:25.749Z,17.85
2022-10-20T19:23:58.527Z,22.90
2022-10-20T19:26:31.010Z,21.77
2022-10-20T19:29:01.921Z,15.20
2022-10-20T19:31:30.461Z,25.13
2022-10-20T19:34:04.925Z,27.63
2022-10-20T19:36:32.247Z,27.52
2022-10-20T19:38:59.489Z,30.45
2022-10-20T19:41:27.557Z,27.05
2022-10-20T19:43:54.768Z,28.25
2022-10-20T19:46:22.290Z,21.63
2022-10-20T19:48:51.078Z,16.67
2022-10-20T19:51:19.914Z,24.75
2022-10-20T19:53:47.970Z,37.13
2022-10-20T19:56:16.023Z,55.15
2022-10-20T19:58:46.477Z,35.75
2022-10-20T20:01:14.387Z,25.02
2022-10-20T20:03:41.634Z,27.80
2022-10-20T20:06:16.335Z,25.70
2022-10-20T20:08:50.068Z,35.75
2022-10-20T20:11:27.003Z,25.33
2022-10-20T20:13:57.594Z,21.25
2022-10-20T20:16:25.218Z,21.58
2022-10-20T20:18:52.298Z,25.63
2022-10-20T20:21:19.883Z,17.80
2022-10-20T20:23:58.858Z,28.50
2022-10-20T20:26:27.810Z,19.92
2022-10-20T20:28:55.674Z,11.40
2022-10-20T20:31:23.909Z,19.40
2022-10-20T20:33:51.132Z,15.95
2022-10-20T20:36:18.254Z,15.05
2022-10-20T20:38:45.723Z,16.63
2022-10-20T20:41:18.748Z,18.63
2022-10-20T20:43:46.706Z,24.77
2022-10-20T20:46:20.499Z,24.63
2022-10-20T20:48:47.617Z,27.73
2022-10-20T20:51:15.146Z,24.63
2022-10-20T20:53:42.548Z,14.90
2022-10-20T20:56:15.430Z,15.93
2022-10-20T20:58:45.400Z,26.85
2022-10-20T21:01:18.325Z,12.45
2022-10-20T21:03:45.963Z,27.17
2022-10-20T21:06:17.520Z,22.88
2022-10-20T21:08:47.818Z,35.90
2022-10-20T21:11:20.153Z,21.73
2022-10-20T21:13:48.843Z,39.15
2022-10-20T21:16:19.831Z,38.10
2022-10-20T21:18:49.291Z,27.85
2022-10-20T21:21:21.618Z,20.67
2022-10-20T21:23:48.954Z,19.45
2022-10-20T21:26:18.428Z,17.58
2022-10-20T21:28:46.591Z,23.80
2022-10-20T21:31:15.898Z,21.55
2022-10-20T21:33:43.238Z,69.03
2022-10-20T21:36:15.299Z,68.50
2022-10-20T21:38:43.085Z,45.50
2022-10-20T21:41:19.398Z,29.63
2022-10-20T21:43:49.379Z,25.90
2022-10-20T21:46:27.111Z,17.52
2022-10-20T21:48:58.643Z,14.00
2022-10-20T21:51:28.905Z,12.85
2022-10-20T21:53:57.024Z,6.95
2022-10-20T21:56:24.948Z,20.02
2022-10-20T21:58:52.669Z,14.82
2022-10-20T22:01:22.410Z,15.70
2022-10-20T22:03:50.650Z,12.73
2022-10-20T22:06:19.730Z,21.88
2022-10-20T22:08:49.133Z,85.00
2022-10-20T22:11:19.973Z,21.27
2022-10-20T22:13:48.146Z,32.00
2022-10-20T22:16:18.790Z,31.80
2022-10-20T22:18:46.341Z,27.38
2022-10-20T22:21:18.165Z,31.45
2022-10-20T22:23:45.586Z,27.80
2022-10-20T22:26:13.110Z,23.95
2022-10-20T22:28:40.743Z,23.05
2022-10-20T22:31:08.063Z,18.25
2022-10-20T22:33:36.838Z,16.50
2022-10-20T22:36:04.897Z,15.38
2022-10-20T22:38:32.014Z,10.95
2022-10-20T22:41:04.080Z,8.07
2022-10-20T22:43:31.585Z,8.52
2022-10-20T22:45:58.559Z,11.40
2022-10-20T22:48:25.817Z,11.63
2022-10-20T22:50:52.967Z,13.82
2022-10-20T22:53:20.247Z,16.50
2022-10-20T22:55:47.410Z,21.15
2022-10-20T22:58:14.580Z,19.55
2022-10-20T23:00:42.615Z,14.95
2022-10-20T23:03:10.391Z,16.65
2022-10-20T23:05:37.748Z,8.63
2022-10-20T23:08:05.919Z,17.85
2022-10-20T23:10:33.711Z,6.32
2022-10-20T23:13:00.810Z,8.20
2022-10-20T23:15:27.701Z,14.02
2022-10-20T23:17:54.933Z,17.52
2022-10-20T23:20:21.727Z,14.52
2022-10-20T23:22:48.776Z,11.52
2022-10-20T23:25:15.779Z,14.38
2022-10-20T23:27:42.734Z,10.10
2022-10-20T23:30:10.006Z,5.40
2022-10-20T23:32:36.981Z,38.97
2022-10-20T23:35:03.952Z,48.25
2022-10-20T23:37:30.876Z,40.72
2022-10-20T23:39:57.795Z,49.38
2022-10-20T23:42:25.048Z,71.55
2022-10-20T23:44:51.844Z,90.78
2022-10-20T23:47:18.922Z,14.70
2022-10-20T23:49:45.732Z,10.00
2022-10-20T23:52:12.611Z,5.85
2022-10-20T23:54:39.616Z,9.00
2022-10-20T23:57:06.430Z,25.77
2022-10-20T23:59:33.369Z,11.75
